sensor_id;sensor_type;location;lat;lon;timestamp;pressure;altitude;pressure_sealevel;temperature;humidity
23303;BME280;11820;48.738;9.092;2022-08-26T00:00:49;96012.53;;;23.25;100.00
23303;BME280;11820;48.738;9.092;2022-08-26T00:03:15;96011.53;;;23.44;98.25
23303;BME280;11820;48.738;9.092;2022-08-26T00:05:41;96008.88;;;23.44;98.50
23303;BME280;11820;48.738;9.092;2022-08-26T00:08:08;96013.91;;;23.17;100.00
23303;BME280;11820;48.738;9.092;2022-08-26T00:10:33;96011.22;;;23.22;100.00
23303;BME280;11820;48.738;9.092;2022-08-26T00:12:59;96002.53;;;23.45;97.78
23303;BME280;11820;48.738;9.092;2022-08-26T00:15:24;96008.69;;;23.13;100.00
23303;BME280;11820;48.738;9.092;2022-08-26T00:17:51;96000.03;;;23.30;99.70
23303;BME280;11820;48.738;9.092;2022-08-26T00:20:20;96005.53;;;23.11;100.00
23303;BME280;11820;48.738;9.092;2022-08-26T00:22:46;96006.31;;;23.11;100.00
23303;BME280;11820;48.738;9.092;2022-08-26T00:25:12;96008.16;;;23.11;100.00
23303;BME280;11820;48.738;9.092;2022-08-26T00:27:38;96008.47;;;23.32;99.12
23303;BME280;11820;48.738;9.092;2022-08-26T00:30:06;96006.81;;;23.41;97.58
23303;BME280;11820;48.738;9.092;2022-08-26T00:32:32;96004.25;;;23.31;99.33
23303;BME280;11820;48.738;9.092;2022-08-26T00:34:58;96000.66;;;23.22;98.79
23303;BME280;11820;48.738;9.092;2022-08-26T00:37:23;96010.50;;;23.12;100.00
23303;BME280;11820;48.738;9.092;2022-08-26T00:39:49;96002.22;;;23.23;100.00
23303;BME280;11820;48.738;9.092;2022-08-26T00:42:14;96004.22;;;23.36;98.19
23303;BME280;11820;48.738;9.092;2022-08-26T00:44:40;95997.63;;;23.34;99.10
23303;BME280;11820;48.738;9.092;2022-08-26T00:47:10;95997.31;;;23.12;100.00
23303;BME280;11820;48.738;9.092;2022-08-26T00:49:39;95991.28;;;23.12;100.00
23303;BME280;11820;48.738;9.092;2022-08-26T00:52:09;95996.84;;;23.05;100.00
23303;BME280;11820;48.738;9.092;2022-08-26T00:54:40;96004.50;;;22.68;100.00
23303;BME280;11820;48.738;9.092;2022-08-26T00:57:13;96007.13;;;22.73;100.00
23303;BME280;11820;48.738;9.092;2022-08-26T00:59:40;96003.19;;;22.71;100.00
23303;BME280;11820;48.738;9.092;2022-08-26T01:02:06;96008.72;;;22.69;100.00
23303;BME280;11820;48.738;9.092;2022-08-26T01:04:34;96002.94;;;22.67;100.00
23303;BME280;11820;48.738;9.092;2022-08-26T01:07:01;96003.75;;;22.96;100.00
23303;BME280;11820;48.738;9.092;2022-08-26T01:09:26;96004.69;;;23.10;100.00
23303;BME280;11820;48.738;9.092;2022-08-26T01:11:54;96006.03;;;23.08;100.00
23303;BME280;11820;48.738;9.092;2022-08-26T01:14:23;96001.66;;;22.93;100.00
23303;BME280;11820;48.738;9.092;2022-08-26T01:16:51;96003.03;;;22.91;100.00
23303;BME280;11820;48.738;9.092;2022-08-26T01:19:27;95999.75;;;22.70;100.00
23303;BME280;11820;48.738;9.092;2022-08-26T01:21:58;96003.34;;;22.84;100.00
23303;BME280;11820;48.738;9.092;2022-08-26T01:24:26;95997.28;;;22.50;100.00
23303;BME280;11820;48.738;9.092;2022-08-26T01:26:57;95996.72;;;22.53;100.00
23303;BME280;11820;48.738;9.092;2022-08-26T01:29:24;95999.00;;;22.65;100.00
23303;BME280;11820;48.738;9.092;2022-08-26T01:31:53;96002.47;;;22.60;100.00
23303;BME280;11820;48.738;9.092;2022-08-26T01:34:31;96005.78;;;22.32;100.00
23303;BME280;11820;48.738;9.092;2022-08-26T01:37:06;96002.78;;;22.05;100.00
23303;BME280;11820;48.738;9.092;2022-08-26T01:39:33;96005.34;;;22.15;100.00
23303;BME280;11820;48.738;9.092;2022-08-26T01:41:59;96001.69;;;22.11;100.00
23303;BME280;11820;48.738;9.092;2022-08-26T01:44:30;96004.81;;;22.13;100.00
23303;BME280;11820;48.738;9.092;2022-08-26T01:46:58;96008.69;;;22.36;100.00
23303;BME280;11820;48.738;9.092;2022-08-26T01:49:24;96007.13;;;22.25;100.00
23303;BME280;11820;48.738;9.092;2022-08-26T01:51:52;96009.00;;;22.24;100.00
23303;BME280;11820;48.738;9.092;2022-08-26T01:54:19;96004.34;;;22.60;100.00
23303;BME280;11820;48.738;9.092;2022-08-26T01:56:46;96009.69;;;22.45;100.00
23303;BME280;11820;48.738;9.092;2022-08-26T01:59:13;96010.56;;;22.25;100.00
23303;BME280;11820;48.738;9.092;2022-08-26T02:01:41;96006.84;;;22.31;100.00
23303;BME280;11820;48.738;9.092;2022-08-26T02:04:30;96002.66;;;22.25;100.00
23303;BME280;11820;48.738;9.092;2022-08-26T02:06:57;96010.00;;;22.33;100.00
23303;BME280;11820;48.738;9.092;2022-08-26T02:09:26;96015.38;;;22.13;100.00
23303;BME280;11820;48.738;9.092;2022-08-26T02:11:52;96008.81;;;22.06;100.00
23303;BME280;11820;48.738;9.092;2022-08-26T02:14:27;96009.88;;;22.10;100.00
23303;BME280;11820;48.738;9.092;2022-08-26T02:16:54;96005.63;;;22.14;100.00
23303;BME280;11820;48.738;9.092;2022-08-26T02:19:23;96009.56;;;22.16;100.00
23303;BME280;11820;48.738;9.092;2022-08-26T02:21:51;96012.53;;;22.00;100.00
23303;BME280;11820;48.738;9.092;2022-08-26T02:24:23;96016.97;;;22.09;100.00
23303;BME280;11820;48.738;9.092;2022-08-26T02:26:50;96003.16;;;21.84;100.00
23303;BME280;11820;48.738;9.092;2022-08-26T02:29:29;96008.91;;;21.91;100.00
23303;BME280;11820;48.738;9.092;2022-08-26T02:31:57;96010.69;;;22.00;100.00
23303;BME280;11820;48.738;9.092;2022-08-26T02:34:28;96009.69;;;21.96;100.00
23303;BME280;11820;48.738;9.092;2022-08-26T02:37:05;96003.84;;;21.99;100.00
23303;BME280;11820;48.738;9.092;2022-08-26T02:39:31;95997.53;;;22.00;100.00
23303;BME280;11820;48.738;9.092;2022-08-26T02:41:57;95995.19;;;21.94;100.00
23303;BME280;11820;48.738;9.092;2022-08-26T02:44:23;95995.25;;;21.84;100.00
23303;BME280;11820;48.738;9.092;2022-08-26T02:46:49;95994.94;;;21.90;100.00
23303;BME280;11820;48.738;9.092;2022-08-26T02:49:15;96005.75;;;21.89;100.00
23303;BME280;11820;48.738;9.092;2022-08-26T02:51:41;96001.44;;;22.08;100.00
23303;BME280;11820;48.738;9.092;2022-08-26T02:54:06;95997.78;;;21.99;100.00
23303;BME280;11820;48.738;9.092;2022-08-26T02:56:32;95996.50;;;21.96;100.00
23303;BME280;11820;48.738;9.092;2022-08-26T02:58:58;96005.69;;;21.99;100.00
23303;BME280;11820;48.738;9.092;2022-08-26T03:01:26;95995.72;;;21.91;100.00
23303;BME280;11820;48.738;9.092;2022-08-26T03:03:53;96000.56;;;21.69;100.00
23303;BME280;11820;48.738;9.092;2022-08-26T03:06:19;96001.00;;;21.91;100.00
23303;BME280;11820;48.738;9.092;2022-08-26T03:08:44;95986.72;;;22.02;100.00
23303;BME280;11820;48.738;9.092;2022-08-26T03:11:10;95994.78;;;21.67;100.00
23303;BME280;11820;48.738;9.092;2022-08-26T03:13:37;95984.72;;;21.74;100.00
23303;BME280;11820;48.738;9.092;2022-08-26T03:16:03;95979.47;;;21.74;100.00
23303;BME280;11820;48.738;9.092;2022-08-26T03:18:28;95980.50;;;21.78;100.00
23303;BME280;11820;48.738;9.092;2022-08-26T03:20:53;95980.00;;;21.71;100.00
23303;BME280;11820;48.738;9.092;2022-08-26T03:23:19;95977.88;;;21.78;100.00
23303;BME280;11820;48.738;9.092;2022-08-26T03:25:51;95972.09;;;21.76;100.00
23303;BME280;11820;48.738;9.092;2022-08-26T03:28:18;95983.19;;;21.53;100.00
23303;BME280;11820;48.738;9.092;2022-08-26T03:30:43;95972.66;;;21.53;100.00
23303;BME280;11820;48.738;9.092;2022-08-26T03:33:09;95980.59;;;21.43;100.00
23303;BME280;11820;48.738;9.092;2022-08-26T03:35:36;95977.44;;;21.46;100.00
23303;BME280;11820;48.738;9.092;2022-08-26T03:38:02;95987.66;;;21.62;100.00
23303;BME280;11820;48.738;9.092;2022-08-26T03:40:29;95982.16;;;21.49;100.00
23303;BME280;11820;48.738;9.092;2022-08-26T03:42:55;95980.63;;;21.38;100.00
23303;BME280;11820;48.738;9.092;2022-08-26T03:45:20;95987.19;;;21.45;100.00
23303;BME280;11820;48.738;9.092;2022-08-26T03:47:46;95988.50;;;21.43;100.00
23303;BME280;11820;48.738;9.092;2022-08-26T03:50:16;95989.56;;;21.42;100.00
23303;BME280;11820;48.738;9.092;2022-08-26T03:52:42;95994.25;;;21.50;100.00
23303;BME280;11820;48.738;9.092;2022-08-26T03:55:08;95992.16;;;21.52;100.00
23303;BME280;11820;48.738;9.092;2022-08-26T03:57:34;95990.06;;;21.44;100.00
23303;BME280;11820;48.738;9.092;2022-08-26T04:00:00;95986.94;;;21.27;100.00
23303;BME280;11820;48.738;9.092;2022-08-26T04:02:25;95991.66;;;21.45;100.00
23303;BME280;11820;48.738;9.092;2022-08-26T04:04:51;95990.56;;;21.51;100.00
23303;BME280;11820;48.738;9.092;2022-08-26T04:07:16;95991.94;;;21.34;100.00
23303;BME280;11820;48.738;9.092;2022-08-26T04:09:41;95985.63;;;21.30;100.00
23303;BME280;11820;48.738;9.092;2022-08-26T04:12:07;95982.03;;;20.96;100.00
23303;BME280;11820;48.738;9.092;2022-08-26T04:14:34;95988.53;;;21.33;100.00
23303;BME280;11820;48.738;9.092;2022-08-26T04:17:02;95982.19;;;21.39;100.00
23303;BME280;11820;48.738;9.092;2022-08-26T04:19:29;95976.66;;;21.45;100.00
23303;BME280;11820;48.738;9.092;2022-08-26T04:21:57;95986.38;;;21.45;100.00
23303;BME280;11820;48.738;9.092;2022-08-26T04:24:25;95979.56;;;21.39;100.00
23303;BME280;11820;48.738;9.092;2022-08-26T04:26:51;95981.16;;;21.25;100.00
23303;BME280;11820;48.738;9.092;2022-08-26T04:29:20;95975.66;;;21.22;100.00
23303;BME280;11820;48.738;9.092;2022-08-26T04:31:46;95971.69;;;21.29;100.00
23303;BME280;11820;48.738;9.092;2022-08-26T04:34:15;95981.16;;;21.35;100.00
23303;BME280;11820;48.738;9.092;2022-08-26T04:36:42;95978.81;;;21.24;100.00
23303;BME280;11820;48.738;9.092;2022-08-26T04:39:10;95974.63;;;21.08;100.00
23303;BME280;11820;48.738;9.092;2022-08-26T04:41:41;95976.47;;;21.12;100.00
23303;BME280;11820;48.738;9.092;2022-08-26T04:44:08;95972.00;;;21.03;100.00
23303;BME280;11820;48.738;9.092;2022-08-26T04:46:34;95978.59;;;21.10;100.00
23303;BME280;11820;48.738;9.092;2022-08-26T04:48:59;95976.22;;;20.89;100.00
23303;BME280;11820;48.738;9.092;2022-08-26T04:51:24;95973.84;;;20.97;100.00
23303;BME280;11820;48.738;9.092;2022-08-26T04:53:57;95980.66;;;21.03;100.00
23303;BME280;11820;48.738;9.092;2022-08-26T04:56:31;95975.97;;;20.95;100.00
23303;BME280;11820;48.738;9.092;2022-08-26T04:58:58;95976.19;;;21.09;100.00
23303;BME280;11820;48.738;9.092;2022-08-26T05:01:24;95976.44;;;21.22;100.00
23303;BME280;11820;48.738;9.092;2022-08-26T05:03:50;95982.19;;;21.44;100.00
23303;BME280;11820;48.738;9.092;2022-08-26T05:06:16;95983.47;;;21.51;100.00
23303;BME280;11820;48.738;9.092;2022-08-26T05:08:41;95988.00;;;21.36;100.00
23303;BME280;11820;48.738;9.092;2022-08-26T05:11:07;95987.47;;;21.39;100.00
23303;BME280;11820;48.738;9.092;2022-08-26T05:13:34;95988.00;;;21.26;100.00
23303;BME280;11820;48.738;9.092;2022-08-26T05:16:04;95983.78;;;21.30;100.00
23303;BME280;11820;48.738;9.092;2022-08-26T05:18:30;95987.75;;;21.28;100.00
23303;BME280;11820;48.738;9.092;2022-08-26T05:20:56;95987.72;;;21.38;100.00
23303;BME280;11820;48.738;9.092;2022-08-26T05:23:23;95988.53;;;21.33;100.00
23303;BME280;11820;48.738;9.092;2022-08-26T05:25:50;95985.63;;;21.35;100.00
23303;BME280;11820;48.738;9.092;2022-08-26T05:28:17;95993.19;;;21.51;100.00
23303;BME280;11820;48.738;9.092;2022-08-26T05:30:43;95992.44;;;21.45;100.00
23303;BME280;11820;48.738;9.092;2022-08-26T05:33:09;95994.78;;;21.47;100.00
23303;BME280;11820;48.738;9.092;2022-08-26T05:35:35;95998.72;;;21.54;100.00
23303;BME280;11820;48.738;9.092;2022-08-26T05:38:07;95987.09;;;21.75;100.00
23303;BME280;11820;48.738;9.092;2022-08-26T05:40:37;96000.28;;;21.60;100.00
23303;BME280;11820;48.738;9.092;2022-08-26T05:43:03;95998.94;;;21.83;100.00
23303;BME280;11820;48.738;9.092;2022-08-26T05:45:34;96002.91;;;21.75;100.00
23303;BME280;11820;48.738;9.092;2022-08-26T05:48:00;95993.59;;;21.98;100.00
23303;BME280;11820;48.738;9.092;2022-08-26T05:50:25;95996.69;;;22.10;100.00
23303;BME280;11820;48.738;9.092;2022-08-26T05:52:51;95998.78;;;22.13;100.00
23303;BME280;11820;48.738;9.092;2022-08-26T05:55:19;95995.88;;;22.14;100.00
23303;BME280;11820;48.738;9.092;2022-08-26T05:57:44;96011.09;;;22.27;100.00
23303;BME280;11820;48.738;9.092;2022-08-26T06:00:10;96010.38;;;22.07;100.00
23303;BME280;11820;48.738;9.092;2022-08-26T06:02:37;96016.25;;;21.94;100.00
23303;BME280;11820;48.738;9.092;2022-08-26T06:05:03;96014.19;;;21.86;100.00
23303;BME280;11820;48.738;9.092;2022-08-26T06:07:28;96020.00;;;21.83;100.00
23303;BME280;11820;48.738;9.092;2022-08-26T06:10:13;96015.69;;;22.02;100.00
23303;BME280;11820;48.738;9.092;2022-08-26T06:12:38;96015.13;;;22.10;100.00
23303;BME280;11820;48.738;9.092;2022-08-26T06:15:04;96018.03;;;22.08;100.00
23303;BME280;11820;48.738;9.092;2022-08-26T06:17:30;96020.34;;;22.20;100.00
23303;BME280;11820;48.738;9.092;2022-08-26T06:19:59;96025.63;;;22.20;100.00
23303;BME280;11820;48.738;9.092;2022-08-26T06:22:39;96025.41;;;22.06;100.00
23303;BME280;11820;48.738;9.092;2022-08-26T06:25:23;96019.03;;;22.17;100.00
23303;BME280;11820;48.738;9.092;2022-08-26T06:28:05;96020.50;;;22.43;100.00
23303;BME280;11820;48.738;9.092;2022-08-26T06:30:32;96018.91;;;22.42;100.00
23303;BME280;11820;48.738;9.092;2022-08-26T06:33:07;96024.41;;;22.51;100.00
23303;BME280;11820;48.738;9.092;2022-08-26T06:35:39;96030.47;;;22.51;100.00
23303;BME280;11820;48.738;9.092;2022-08-26T06:38:24;96029.13;;;22.54;100.00
23303;BME280;11820;48.738;9.092;2022-08-26T06:40:51;96023.81;;;22.64;100.00
23303;BME280;11820;48.738;9.092;2022-08-26T06:43:23;96018.69;;;22.77;100.00
23303;BME280;11820;48.738;9.092;2022-08-26T06:45:50;96024.13;;;22.91;100.00
23303;BME280;11820;48.738;9.092;2022-08-26T06:48:18;96025.91;;;23.00;100.00
23303;BME280;11820;48.738;9.092;2022-08-26T06:50:44;96031.66;;;23.07;100.00
23303;BME280;11820;48.738;9.092;2022-08-26T06:53:11;96025.94;;;22.95;100.00
23303;BME280;11820;48.738;9.092;2022-08-26T06:55:42;96029.69;;;23.22;100.00
23303;BME280;11820;48.738;9.092;2022-08-26T06:58:08;96025.28;;;23.13;100.00
23303;BME280;11820;48.738;9.092;2022-08-26T07:00:34;96025.03;;;23.15;100.00
23303;BME280;11820;48.738;9.092;2022-08-26T07:03:01;96039.81;;;23.06;100.00
23303;BME280;11820;48.738;9.092;2022-08-26T07:05:26;96028.34;;;23.25;100.00
23303;BME280;11820;48.738;9.092;2022-08-26T07:07:52;96025.97;;;23.23;100.00
23303;BME280;11820;48.738;9.092;2022-08-26T07:10:17;96031.59;;;23.45;100.00
23303;BME280;11820;48.738;9.092;2022-08-26T07:12:43;96020.19;;;23.73;100.00
23303;BME280;11820;48.738;9.092;2022-08-26T07:15:09;96022.25;;;23.76;100.00
23303;BME280;11820;48.738;9.092;2022-08-26T07:17:35;96028.19;;;23.92;100.00
23303;BME280;11820;48.738;9.092;2022-08-26T07:20:01;96032.00;;;24.04;100.00
23303;BME280;11820;48.738;9.092;2022-08-26T07:22:27;96032.31;;;24.21;100.00
23303;BME280;11820;48.738;9.092;2022-08-26T07:24:52;96025.31;;;24.30;100.00
23303;BME280;11820;48.738;9.092;2022-08-26T07:27:19;96030.69;;;24.44;100.00
23303;BME280;11820;48.738;9.092;2022-08-26T07:29:44;96025.56;;;24.52;100.00
23303;BME280;11820;48.738;9.092;2022-08-26T07:32:15;96030.72;;;24.62;100.00
23303;BME280;11820;48.738;9.092;2022-08-26T07:34:43;96028.28;;;24.66;100.00
23303;BME280;11820;48.738;9.092;2022-08-26T07:37:10;96032.72;;;24.70;100.00
23303;BME280;11820;48.738;9.092;2022-08-26T07:39:35;96033.72;;;24.74;100.00
23303;BME280;11820;48.738;9.092;2022-08-26T07:42:02;96032.78;;;24.84;99.82
23303;BME280;11820;48.738;9.092;2022-08-26T07:44:28;96036.66;;;24.91;98.23
23303;BME280;11820;48.738;9.092;2022-08-26T07:46:54;96038.31;;;25.00;97.18
23303;BME280;11820;48.738;9.092;2022-08-26T07:49:23;96031.19;;;25.01;97.08
23303;BME280;11820;48.738;9.092;2022-08-26T07:51:49;96037.38;;;25.10;95.80
23303;BME280;11820;48.738;9.092;2022-08-26T07:54:14;96030.94;;;25.16;95.41
23303;BME280;11820;48.738;9.092;2022-08-26T07:56:41;96034.63;;;25.20;95.02
23303;BME280;11820;48.738;9.092;2022-08-26T07:59:06;96028.38;;;25.29;93.64
23303;BME280;11820;48.738;9.092;2022-08-26T08:01:32;96035.41;;;25.34;94.03
23303;BME280;11820;48.738;9.092;2022-08-26T08:03:58;96035.44;;;25.47;92.34
23303;BME280;11820;48.738;9.092;2022-08-26T08:06:25;96032.41;;;25.54;92.03
23303;BME280;11820;48.738;9.092;2022-08-26T08:08:50;96036.53;;;25.60;89.38
23303;BME280;11820;48.738;9.092;2022-08-26T08:11:17;96032.75;;;25.66;84.61
23303;BME280;11820;48.738;9.092;2022-08-26T08:13:44;96030.59;;;25.81;83.91
23303;BME280;11820;48.738;9.092;2022-08-26T08:16:10;96034.13;;;25.90;82.95
23303;BME280;11820;48.738;9.092;2022-08-26T08:18:35;96031.97;;;26.06;83.08
23303;BME280;11820;48.738;9.092;2022-08-26T08:21:00;96029.09;;;26.16;82.24
23303;BME280;11820;48.738;9.092;2022-08-26T08:23:28;96032.81;;;26.28;82.06
23303;BME280;11820;48.738;9.092;2022-08-26T08:26:08;96034.19;;;26.39;80.54
23303;BME280;11820;48.738;9.092;2022-08-26T08:28:35;96026.22;;;26.39;81.13
23303;BME280;11820;48.738;9.092;2022-08-26T08:31:01;96032.13;;;26.50;81.12
23303;BME280;11820;48.738;9.092;2022-08-26T08:33:27;96032.31;;;26.40;82.01
23303;BME280;11820;48.738;9.092;2022-08-26T08:35:55;96031.72;;;26.43;81.91
23303;BME280;11820;48.738;9.092;2022-08-26T08:38:20;96029.00;;;26.48;81.42
23303;BME280;11820;48.738;9.092;2022-08-26T08:40:45;96033.22;;;26.49;81.24
23303;BME280;11820;48.738;9.092;2022-08-26T08:43:25;96030.06;;;26.47;80.62
23303;BME280;11820;48.738;9.092;2022-08-26T08:46:11;96034.69;;;26.41;79.73
23303;BME280;11820;48.738;9.092;2022-08-26T08:48:41;96037.81;;;26.43;79.57
23303;BME280;11820;48.738;9.092;2022-08-26T08:51:34;96031.13;;;26.46;79.33
23303;BME280;11820;48.738;9.092;2022-08-26T08:54:04;96028.03;;;26.30;80.10
23303;BME280;11820;48.738;9.092;2022-08-26T09:02:13;96032.34;;;26.13;81.13
23303;BME280;11820;48.738;9.092;2022-08-26T09:06:52;96035.06;;;26.35;79.98
23303;BME280;11820;48.738;9.092;2022-08-26T09:09:36;96025.91;;;26.41;79.72
23303;BME280;11820;48.738;9.092;2022-08-26T09:12:08;96029.56;;;26.45;80.16
23303;BME280;11820;48.738;9.092;2022-08-26T09:14:35;96029.16;;;26.38;79.32
23303;BME280;11820;48.738;9.092;2022-08-26T09:17:15;96031.34;;;26.49;79.23
23303;BME280;11820;48.738;9.092;2022-08-26T09:19:50;96036.44;;;26.59;79.09
23303;BME280;11820;48.738;9.092;2022-08-26T09:22:28;96028.00;;;26.57;78.85
23303;BME280;11820;48.738;9.092;2022-08-26T09:24:54;96030.69;;;26.65;77.17
23303;BME280;11820;48.738;9.092;2022-08-26T09:27:43;96032.78;;;26.68;78.83
23303;BME280;11820;48.738;9.092;2022-08-26T09:30:18;96024.66;;;26.52;77.83
23303;BME280;11820;48.738;9.092;2022-08-26T09:33:00;96021.22;;;26.38;78.21
23303;BME280;11820;48.738;9.092;2022-08-26T09:35:30;96022.25;;;26.63;77.58
23303;BME280;11820;48.738;9.092;2022-08-26T09:37:56;96021.31;;;26.81;75.95
23303;BME280;11820;48.738;9.092;2022-08-26T09:40:32;96012.13;;;26.87;75.76
23303;BME280;11820;48.738;9.092;2022-08-26T09:43:17;96010.31;;;27.10;75.25
23303;BME280;11820;48.738;9.092;2022-08-26T09:45:49;96011.44;;;27.17;74.84
23303;BME280;11820;48.738;9.092;2022-08-26T09:48:33;96008.22;;;27.29;74.82
23303;BME280;11820;48.738;9.092;2022-08-26T09:51:02;96004.22;;;27.40;75.25
23303;BME280;11820;48.738;9.092;2022-08-26T09:53:32;96000.41;;;27.63;74.52
23303;BME280;11820;48.738;9.092;2022-08-26T09:56:14;95993.59;;;27.70;73.96
23303;BME280;11820;48.738;9.092;2022-08-26T09:58:43;95983.44;;;27.72;72.38
23303;BME280;11820;48.738;9.092;2022-08-26T10:03:44;95978.06;;;28.11;70.38
23303;BME280;11820;48.738;9.092;2022-08-26T10:08:43;95971.38;;;28.31;68.77
23303;BME280;11820;48.738;9.092;2022-08-26T10:17:30;95968.09;;;28.42;64.52
23303;BME280;11820;48.738;9.092;2022-08-26T10:20:09;95956.53;;;28.55;62.92
23303;BME280;11820;48.738;9.092;2022-08-26T10:22:42;95950.41;;;28.71;62.97
23303;BME280;11820;48.738;9.092;2022-08-26T10:25:13;95948.69;;;28.92;62.25
23303;BME280;11820;48.738;9.092;2022-08-26T10:28:11;95947.38;;;29.24;57.31
23303;BME280;11820;48.738;9.092;2022-08-26T10:30:45;95950.38;;;29.05;56.36
23303;BME280;11820;48.738;9.092;2022-08-26T10:33:14;95954.94;;;29.05;57.36
23303;BME280;11820;48.738;9.092;2022-08-26T10:35:51;95946.78;;;28.93;56.16
23303;BME280;11820;48.738;9.092;2022-08-26T10:38:25;95951.47;;;29.13;55.69
23303;BME280;11820;48.738;9.092;2022-08-26T10:41:01;95939.94;;;29.46;55.00
23303;BME280;11820;48.738;9.092;2022-08-26T10:43:35;95944.41;;;29.63;53.66
23303;BME280;11820;48.738;9.092;2022-08-26T10:46:11;95951.41;;;29.76;52.03
23303;BME280;11820;48.738;9.092;2022-08-26T10:49:11;95947.59;;;29.48;52.51
23303;BME280;11820;48.738;9.092;2022-08-26T10:51:43;95949.03;;;29.45;52.45
23303;BME280;11820;48.738;9.092;2022-08-26T10:54:30;95937.53;;;29.45;51.76
23303;BME280;11820;48.738;9.092;2022-08-26T10:57:26;95939.41;;;29.07;51.81
23303;BME280;11820;48.738;9.092;2022-08-26T11:03:03;95934.72;;;29.04;53.71
23303;BME280;11820;48.738;9.092;2022-08-26T11:05:31;95934.09;;;29.53;53.46
23303;BME280;11820;48.738;9.092;2022-08-26T11:10:56;95914.06;;;29.76;51.91
23303;BME280;11820;48.738;9.092;2022-08-26T11:13:58;95904.47;;;29.46;51.20
23303;BME280;11820;48.738;9.092;2022-08-26T11:16:34;95914.38;;;29.37;52.02
23303;BME280;11820;48.738;9.092;2022-08-26T11:19:00;95910.19;;;29.19;51.60
23303;BME280;11820;48.738;9.092;2022-08-26T11:21:49;95899.88;;;29.17;51.63
23303;BME280;11820;48.738;9.092;2022-08-26T11:24:41;95912.81;;;29.36;51.31
23303;BME280;11820;48.738;9.092;2022-08-26T11:27:09;95905.63;;;29.74;50.28
23303;BME280;11820;48.738;9.092;2022-08-26T11:40:18;95896.97;;;31.11;46.49
23303;BME280;11820;48.738;9.092;2022-08-26T11:42:57;95901.09;;;31.21;44.58
23303;BME280;11820;48.738;9.092;2022-08-26T11:45:40;95889.53;;;31.53;43.21
23303;BME280;11820;48.738;9.092;2022-08-26T11:48:19;95884.50;;;31.63;44.31
23303;BME280;11820;48.738;9.092;2022-08-26T11:51:19;95890.69;;;32.15;42.71
23303;BME280;11820;48.738;9.092;2022-08-26T11:53:39;95881.19;;;32.29;42.39
23303;BME280;11820;48.738;9.092;2022-08-26T11:56:17;95880.00;;;32.54;40.82
23303;BME280;11820;48.738;9.092;2022-08-26T11:58:48;95879.97;;;33.25;40.79
23303;BME280;11820;48.738;9.092;2022-08-26T12:01:25;95883.44;;;33.41;40.15
23303;BME280;11820;48.738;9.092;2022-08-26T12:03:51;95885.41;;;33.75;40.99
23303;BME280;11820;48.738;9.092;2022-08-26T12:06:49;95886.03;;;34.18;39.81
23303;BME280;11820;48.738;9.092;2022-08-26T12:09:36;95883.13;;;34.64;39.40
23303;BME280;11820;48.738;9.092;2022-08-26T12:12:16;95889.28;;;33.00;41.59
23303;BME280;11820;48.738;9.092;2022-08-26T12:14:43;95890.16;;;32.21;42.39
23303;BME280;11820;48.738;9.092;2022-08-26T12:17:15;95887.19;;;31.87;42.56
23303;BME280;11820;48.738;9.092;2022-08-26T12:19:42;95887.53;;;31.50;41.85
23303;BME280;11820;48.738;9.092;2022-08-26T12:22:21;95883.59;;;31.11;43.62
23303;BME280;11820;48.738;9.092;2022-08-26T12:24:54;95883.75;;;30.94;42.11
23303;BME280;11820;48.738;9.092;2022-08-26T12:27:24;95886.63;;;30.89;44.06
23303;BME280;11820;48.738;9.092;2022-08-26T12:32:29;95867.69;;;32.26;40.58
23303;BME280;11820;48.738;9.092;2022-08-26T12:34:56;95881.03;;;34.96;37.31
23303;BME280;11820;48.738;9.092;2022-08-26T12:37:22;95875.72;;;35.18;36.35
23303;BME280;11820;48.738;9.092;2022-08-26T12:39:48;95875.41;;;32.15;41.05
23303;BME280;11820;48.738;9.092;2022-08-26T12:47:36;95858.25;;;33.61;39.83
23303;BME280;11820;48.738;9.092;2022-08-26T12:52:44;95855.03;;;32.11;39.32
23303;BME280;11820;48.738;9.092;2022-08-26T12:55:23;95861.53;;;31.86;42.64
23303;BME280;11820;48.738;9.092;2022-08-26T12:58:09;95854.88;;;31.44;40.27
23303;BME280;11820;48.738;9.092;2022-08-26T13:00:36;95849.97;;;34.76;35.95
23303;BME280;11820;48.738;9.092;2022-08-26T13:03:03;95839.94;;;38.38;31.34
23303;BME280;11820;48.738;9.092;2022-08-26T13:05:49;95846.53;;;37.30;35.22
23303;BME280;11820;48.738;9.092;2022-08-26T13:08:23;95836.75;;;33.76;39.77
23303;BME280;11820;48.738;9.092;2022-08-26T13:11:03;95841.34;;;31.05;41.99
23303;BME280;11820;48.738;9.092;2022-08-26T13:13:32;95841.66;;;30.91;44.64
23303;BME280;11820;48.738;9.092;2022-08-26T13:15:58;95839.97;;;30.87;44.71
23303;BME280;11820;48.738;9.092;2022-08-26T13:18:24;95833.00;;;29.68;48.41
23303;BME280;11820;48.738;9.092;2022-08-26T13:20:49;95833.47;;;30.31;43.14
23303;BME280;11820;48.738;9.092;2022-08-26T13:23:15;95825.38;;;30.40;45.44
23303;BME280;11820;48.738;9.092;2022-08-26T13:25:40;95834.56;;;30.30;47.72
23303;BME280;11820;48.738;9.092;2022-08-26T13:28:05;95837.63;;;30.00;48.82
23303;BME280;11820;48.738;9.092;2022-08-26T13:30:31;95838.19;;;29.65;50.84
23303;BME280;11820;48.738;9.092;2022-08-26T13:32:58;95835.06;;;29.34;52.52
23303;BME280;11820;48.738;9.092;2022-08-26T13:35:25;95837.72;;;29.05;54.87
23303;BME280;11820;48.738;9.092;2022-08-26T13:37:50;95830.81;;;28.07;60.78
23303;BME280;11820;48.738;9.092;2022-08-26T13:40:16;95834.41;;;27.77;64.63
23303;BME280;11820;48.738;9.092;2022-08-26T13:42:41;95831.75;;;27.94;64.59
23303;BME280;11820;48.738;9.092;2022-08-26T13:45:07;95823.91;;;27.81;66.09
23303;BME280;11820;48.738;9.092;2022-08-26T13:47:34;95827.22;;;28.03;66.36
23303;BME280;11820;48.738;9.092;2022-08-26T13:50:00;95829.88;;;28.45;65.63
23303;BME280;11820;48.738;9.092;2022-08-26T13:52:25;95839.47;;;29.30;61.83
23303;BME280;11820;48.738;9.092;2022-08-26T13:54:50;95839.00;;;30.06;58.53